sensor_id;sensor_type;location;lat;lon;timestamp;P1;durP1;ratioP1;P2;durP2;ratioP2
10244;SDS011;5167;52.164;10.530;2024-02-21T00:00:44;10.05;;;4.28;;
10244;SDS011;5167;52.164;10.530;2024-02-21T00:03:10;8.95;;;4.07;;
10244;SDS011;5167;52.164;10.530;2024-02-21T00:05:36;12.43;;;4.50;;
10244;SDS011;5167;52.164;10.530;2024-02-21T00:08:01;15.50;;;6.03;;
10244;SDS011;5167;52.164;10.530;2024-02-21T00:10:28;7.85;;;4.15;;
10244;SDS011;5167;52.164;10.530;2024-02-21T00:12:53;11.10;;;4.38;;
10244;SDS011;5167;52.164;10.530;2024-02-21T00:15:19;16.45;;;5.00;;
10244;SDS011;5167;52.164;10.530;2024-02-21T00:17:45;17.37;;;4.50;;
10244;SDS011;5167;52.164;10.530;2024-02-21T00:20:10;17.60;;;4.95;;
10244;SDS011;5167;52.164;10.530;2024-02-21T00:22:36;12.40;;;4.82;;
10244;SDS011;5167;52.164;10.530;2024-02-21T00:25:02;17.40;;;5.53;;
10244;SDS011;5167;52.164;10.530;2024-02-21T00:27:28;10.95;;;4.50;;
10244;SDS011;5167;52.164;10.530;2024-02-21T00:29:53;14.38;;;5.43;;
10244;SDS011;5167;52.164;10.530;2024-02-21T00:32:19;18.10;;;5.07;;
10244;SDS011;5167;52.164;10.530;2024-02-21T00:34:44;9.63;;;4.50;;
10244;SDS011;5167;52.164;10.530;2024-02-21T00:37:10;19.92;;;5.15;;
10244;SDS011;5167;52.164;10.530;2024-02-21T00:39:35;11.57;;;4.68;;
10244;SDS011;5167;52.164;10.530;2024-02-21T00:42:02;16.67;;;5.75;;
10244;SDS011;5167;52.164;10.530;2024-02-21T00:44:27;13.60;;;4.70;;
10244;SDS011;5167;52.164;10.530;2024-02-21T00:46:53;15.45;;;5.70;;
10244;SDS011;5167;52.164;10.530;2024-02-21T00:49:18;9.57;;;4.57;;
10244;SDS011;5167;52.164;10.530;2024-02-21T00:51:44;8.88;;;4.35;;
10244;SDS011;5167;52.164;10.530;2024-02-21T00:54:09;13.33;;;4.50;;
10244;SDS011;5167;52.164;10.530;2024-02-21T00:56:35;11.40;;;4.50;;
10244;SDS011;5167;52.164;10.530;2024-02-21T00:59:00;11.27;;;4.35;;
10244;SDS011;5167;52.164;10.530;2024-02-21T01:01:26;8.33;;;3.60;;
10244;SDS011;5167;52.164;10.530;2024-02-21T01:03:51;18.95;;;5.40;;
10244;SDS011;5167;52.164;10.530;2024-02-21T01:06:20;8.37;;;3.80;;
10244;SDS011;5167;52.164;10.530;2024-02-21T01:08:49;14.40;;;4.93;;
10244;SDS011;5167;52.164;10.530;2024-02-21T01:11:15;11.80;;;4.67;;
10244;SDS011;5167;52.164;10.530;2024-02-21T01:13:41;10.25;;;4.50;;
10244;SDS011;5167;52.164;10.530;2024-02-21T01:16:07;8.15;;;4.05;;
10244;SDS011;5167;52.164;10.530;2024-02-21T01:18:41;14.95;;;5.15;;
10244;SDS011;5167;52.164;10.530;2024-02-21T01:21:07;13.48;;;5.97;;
10244;SDS011;5167;52.164;10.530;2024-02-21T01:23:34;15.43;;;5.22;;
10244;SDS011;5167;52.164;10.530;2024-02-21T01:26:01;13.60;;;5.40;;
10244;SDS011;5167;52.164;10.530;2024-02-21T01:28:26;16.70;;;6.38;;
10244;SDS011;5167;52.164;10.530;2024-02-21T01:30:52;12.00;;;5.40;;
10244;SDS011;5167;52.164;10.530;2024-02-21T01:33:17;14.40;;;6.30;;
10244;SDS011;5167;52.164;10.530;2024-02-21T01:35:43;13.60;;;5.70;;
10244;SDS011;5167;52.164;10.530;2024-02-21T01:38:09;15.03;;;6.43;;
10244;SDS011;5167;52.164;10.530;2024-02-21T01:40:35;12.27;;;6.72;;
10244;SDS011;5167;52.164;10.530;2024-02-21T01:43:02;16.48;;;6.82;;
10244;SDS011;5167;52.164;10.530;2024-02-21T01:45:28;12.27;;;6.07;;
10244;SDS011;5167;52.164;10.530;2024-02-21T01:47:53;14.02;;;6.60;;
10244;SDS011;5167;52.164;10.530;2024-02-21T01:50:18;16.75;;;7.15;;
10244;SDS011;5167;52.164;10.530;2024-02-21T01:52:45;15.02;;;7.50;;
10244;SDS011;5167;52.164;10.530;2024-02-21T01:55:13;20.95;;;8.13;;
10244;SDS011;5167;52.164;10.530;2024-02-21T01:57:40;21.40;;;7.43;;
10244;SDS011;5167;52.164;10.530;2024-02-21T02:00:07;20.50;;;8.60;;
10244;SDS011;5167;52.164;10.530;2024-02-21T02:02:35;21.48;;;8.38;;
10244;SDS011;5167;52.164;10.530;2024-02-21T02:05:02;16.13;;;7.80;;
10244;SDS011;5167;52.164;10.530;2024-02-21T02:07:29;18.50;;;7.27;;
10244;SDS011;5167;52.164;10.530;2024-02-21T02:09:54;15.63;;;7.27;;
10244;SDS011;5167;52.164;10.530;2024-02-21T02:12:20;18.93;;;8.83;;
10244;SDS011;5167;52.164;10.530;2024-02-21T02:14:45;21.17;;;7.72;;
10244;SDS011;5167;52.164;10.530;2024-02-21T02:17:11;22.50;;;9.17;;
10244;SDS011;5167;52.164;10.530;2024-02-21T02:19:37;14.38;;;7.50;;
10244;SDS011;5167;52.164;10.530;2024-02-21T02:22:08;15.30;;;7.93;;
10244;SDS011;5167;52.164;10.530;2024-02-21T02:24:39;14.70;;;8.52;;
10244;SDS011;5167;52.164;10.530;2024-02-21T02:27:05;20.48;;;7.97;;
10244;SDS011;5167;52.164;10.530;2024-02-21T02:29:31;20.73;;;9.23;;
10244;SDS011;5167;52.164;10.530;2024-02-21T02:31:57;18.10;;;8.32;;
10244;SDS011;5167;52.164;10.530;2024-02-21T02:34:23;16.83;;;8.48;;
10244;SDS011;5167;52.164;10.530;2024-02-21T02:36:49;20.73;;;8.93;;
10244;SDS011;5167;52.164;10.530;2024-02-21T02:39:14;21.17;;;8.35;;
10244;SDS011;5167;52.164;10.530;2024-02-21T02:41:40;15.80;;;8.15;;
10244;SDS011;5167;52.164;10.530;2024-02-21T02:44:05;18.27;;;7.90;;
10244;SDS011;5167;52.164;10.530;2024-02-21T02:46:31;16.85;;;8.23;;
10244;SDS011;5167;52.164;10.530;2024-02-21T02:48:56;18.85;;;8.90;;
10244;SDS011;5167;52.164;10.530;2024-02-21T02:51:22;16.92;;;8.45;;
10244;SDS011;5167;52.164;10.530;2024-02-21T02:53:47;15.00;;;8.10;;
10244;SDS011;5167;52.164;10.530;2024-02-21T02:56:16;15.13;;;8.77;;
10244;SDS011;5167;52.164;10.530;2024-02-21T02:58:42;13.88;;;8.13;;
10244;SDS011;5167;52.164;10.530;2024-02-21T03:01:08;20.60;;;8.30;;
10244;SDS011;5167;52.164;10.530;2024-02-21T03:03:33;20.08;;;7.93;;
10244;SDS011;5167;52.164;10.530;2024-02-21T03:05:59;18.85;;;8.20;;
10244;SDS011;5167;52.164;10.530;2024-02-21T03:08:24;21.40;;;8.38;;
10244;SDS011;5167;52.164;10.530;2024-02-21T03:10:50;19.73;;;8.65;;
10244;SDS011;5167;52.164;10.530;2024-02-21T03:13:15;16.58;;;7.85;;
10244;SDS011;5167;52.164;10.530;2024-02-21T03:15:41;20.58;;;8.30;;
10244;SDS011;5167;52.164;10.530;2024-02-21T03:18:06;22.30;;;8.52;;
10244;SDS011;5167;52.164;10.530;2024-02-21T03:20:32;20.20;;;8.57;;
10244;SDS011;5167;52.164;10.530;2024-02-21T03:22:57;20.00;;;8.40;;
10244;SDS011;5167;52.164;10.530;2024-02-21T03:25:23;21.42;;;9.25;;
10244;SDS011;5167;52.164;10.530;2024-02-21T03:27:48;21.73;;;7.95;;
10244;SDS011;5167;52.164;10.530;2024-02-21T03:30:14;18.40;;;8.45;;
10244;SDS011;5167;52.164;10.530;2024-02-21T03:32:40;19.13;;;8.52;;
10244;SDS011;5167;52.164;10.530;2024-02-21T03:35:05;18.80;;;7.90;;
10244;SDS011;5167;52.164;10.530;2024-02-21T03:37:33;15.55;;;8.50;;
10244;SDS011;5167;52.164;10.530;2024-02-21T03:39:59;15.95;;;9.18;;
10244;SDS011;5167;52.164;10.530;2024-02-21T03:42:24;23.38;;;8.23;;
10244;SDS011;5167;52.164;10.530;2024-02-21T03:44:50;23.40;;;10.00;;
10244;SDS011;5167;52.164;10.530;2024-02-21T03:47:15;18.65;;;8.45;;
10244;SDS011;5167;52.164;10.530;2024-02-21T03:49:41;16.90;;;8.63;;
10244;SDS011;5167;52.164;10.530;2024-02-21T03:52:07;16.27;;;8.60;;
10244;SDS011;5167;52.164;10.530;2024-02-21T03:54:33;14.48;;;8.38;;
10244;SDS011;5167;52.164;10.530;2024-02-21T03:56:58;20.02;;;8.02;;
10244;SDS011;5167;52.164;10.530;2024-02-21T03:59:24;15.98;;;8.15;;
10244;SDS011;5167;52.164;10.530;2024-02-21T04:01:53;16.30;;;7.82;;
10244;SDS011;5167;52.164;10.530;2024-02-21T04:04:19;15.48;;;8.70;;
10244;SDS011;5167;52.164;10.530;2024-02-21T04:06:51;23.85;;;8.07;;
10244;SDS011;5167;52.164;10.530;2024-02-21T04:09:17;16.23;;;7.45;;
10244;SDS011;5167;52.164;10.530;2024-02-21T04:11:43;16.85;;;8.05;;
10244;SDS011;5167;52.164;10.530;2024-02-21T04:14:08;16.08;;;7.68;;
10244;SDS011;5167;52.164;10.530;2024-02-21T04:16:36;16.83;;;7.50;;
10244;SDS011;5167;52.164;10.530;2024-02-21T04:19:01;20.48;;;8.95;;
10244;SDS011;5167;52.164;10.530;2024-02-21T04:21:30;23.38;;;7.95;;
10244;SDS011;5167;52.164;10.530;2024-02-21T04:23:55;14.38;;;7.60;;
10244;SDS011;5167;52.164;10.530;2024-02-21T04:26:21;15.38;;;7.55;;
10244;SDS011;5167;52.164;10.530;2024-02-21T04:28:46;13.63;;;7.70;;
10244;SDS011;5167;52.164;10.530;2024-02-21T04:31:12;15.80;;;7.70;;
10244;SDS011;5167;52.164;10.530;2024-02-21T04:33:37;17.60;;;7.63;;
10244;SDS011;5167;52.164;10.530;2024-02-21T04:36:03;18.27;;;7.85;;
10244;SDS011;5167;52.164;10.530;2024-02-21T04:38:29;17.15;;;7.18;;
10244;SDS011;5167;52.164;10.530;2024-02-21T04:40:55;17.17;;;6.90;;
10244;SDS011;5167;52.164;10.530;2024-02-21T04:43:23;20.98;;;7.90;;
10244;SDS011;5167;52.164;10.530;2024-02-21T04:45:49;15.23;;;7.43;;
10244;SDS011;5167;52.164;10.530;2024-02-21T04:48:15;17.10;;;6.15;;
10244;SDS011;5167;52.164;10.530;2024-02-21T04:50:41;15.50;;;6.77;;
10244;SDS011;5167;52.164;10.530;2024-02-21T04:53:06;17.73;;;7.43;;
10244;SDS011;5167;52.164;10.530;2024-02-21T04:55:32;18.33;;;7.30;;
10244;SDS011;5167;52.164;10.530;2024-02-21T04:57:58;15.70;;;7.90;;
10244;SDS011;5167;52.164;10.530;2024-02-21T05:00:24;18.33;;;7.93;;
10244;SDS011;5167;52.164;10.530;2024-02-21T05:02:49;17.20;;;7.50;;
10244;SDS011;5167;52.164;10.530;2024-02-21T05:05:14;12.75;;;7.05;;
10244;SDS011;5167;52.164;10.530;2024-02-21T05:07:41;17.33;;;7.88;;
10244;SDS011;5167;52.164;10.530;2024-02-21T05:10:07;17.70;;;7.97;;
10244;SDS011;5167;52.164;10.530;2024-02-21T05:12:33;16.25;;;7.80;;
10244;SDS011;5167;52.164;10.530;2024-02-21T05:14:59;17.67;;;8.82;;
10244;SDS011;5167;52.164;10.530;2024-02-21T05:17:24;16.90;;;7.68;;
10244;SDS011;5167;52.164;10.530;2024-02-21T05:19:50;21.80;;;8.35;;
10244;SDS011;5167;52.164;10.530;2024-02-21T05:22:15;14.65;;;7.45;;
10244;SDS011;5167;52.164;10.530;2024-02-21T05:24:40;22.08;;;8.07;;
10244;SDS011;5167;52.164;10.530;2024-02-21T05:27:06;16.60;;;7.75;;
10244;SDS011;5167;52.164;10.530;2024-02-21T05:29:32;18.50;;;7.50;;
10244;SDS011;5167;52.164;10.530;2024-02-21T05:31:58;16.85;;;8.38;;
10244;SDS011;5167;52.164;10.530;2024-02-21T05:34:23;17.95;;;8.27;;
10244;SDS011;5167;52.164;10.530;2024-02-21T05:36:50;18.48;;;7.72;;
10244;SDS011;5167;52.164;10.530;2024-02-21T05:39:16;13.93;;;7.80;;
10244;SDS011;5167;52.164;10.530;2024-02-21T05:41:42;15.57;;;8.10;;
10244;SDS011;5167;52.164;10.530;2024-02-21T05:44:08;15.45;;;8.10;;
10244;SDS011;5167;52.164;10.530;2024-02-21T05:46:33;17.77;;;8.02;;
10244;SDS011;5167;52.164;10.530;2024-02-21T05:48:59;14.90;;;6.97;;
10244;SDS011;5167;52.164;10.530;2024-02-21T05:51:25;22.47;;;8.17;;
10244;SDS011;5167;52.164;10.530;2024-02-21T05:53:50;16.30;;;7.18;;
10244;SDS011;5167;52.164;10.530;2024-02-21T05:56:16;16.60;;;7.22;;
10244;SDS011;5167;52.164;10.530;2024-02-21T05:58:43;17.67;;;8.05;;
10244;SDS011;5167;52.164;10.530;2024-02-21T06:01:08;12.02;;;7.10;;
10244;SDS011;5167;52.164;10.530;2024-02-21T06:03:34;17.20;;;7.32;;
10244;SDS011;5167;52.164;10.530;2024-02-21T06:06:01;15.63;;;7.68;;
10244;SDS011;5167;52.164;10.530;2024-02-21T06:08:26;17.25;;;7.43;;
10244;SDS011;5167;52.164;10.530;2024-02-21T06:10:52;13.43;;;6.97;;
10244;SDS011;5167;52.164;10.530;2024-02-21T06:13:19;12.32;;;7.20;;
10244;SDS011;5167;52.164;10.530;2024-02-21T06:15:46;17.37;;;7.10;;
10244;SDS011;5167;52.164;10.530;2024-02-21T06:18:12;16.58;;;7.47;;
10244;SDS011;5167;52.164;10.530;2024-02-21T06:20:37;15.35;;;7.40;;
10244;SDS011;5167;52.164;10.530;2024-02-21T06:23:05;13.90;;;7.53;;
10244;SDS011;5167;52.164;10.530;2024-02-21T06:25:31;14.57;;;7.32;;
10244;SDS011;5167;52.164;10.530;2024-02-21T06:27:56;13.68;;;6.25;;
10244;SDS011;5167;52.164;10.530;2024-02-21T06:30:22;16.47;;;7.27;;
10244;SDS011;5167;52.164;10.530;2024-02-21T06:32:47;14.07;;;7.20;;
10244;SDS011;5167;52.164;10.530;2024-02-21T06:35:13;17.10;;;7.50;;
10244;SDS011;5167;52.164;10.530;2024-02-21T06:37:38;19.15;;;7.72;;
10244;SDS011;5167;52.164;10.530;2024-02-21T06:40:04;17.55;;;7.68;;
10244;SDS011;5167;52.164;10.530;2024-02-21T06:42:30;17.00;;;7.67;;
10244;SDS011;5167;52.164;10.530;2024-02-21T06:44:56;14.88;;;7.85;;
10244;SDS011;5167;52.164;10.530;2024-02-21T06:47:22;13.70;;;7.30;;
10244;SDS011;5167;52.164;10.530;2024-02-21T06:49:50;20.73;;;8.05;;
10244;SDS011;5167;52.164;10.530;2024-02-21T06:52:19;15.00;;;7.85;;
10244;SDS011;5167;52.164;10.530;2024-02-21T06:54:48;16.13;;;7.68;;
10244;SDS011;5167;52.164;10.530;2024-02-21T06:57:14;10.52;;;7.22;;
10244;SDS011;5167;52.164;10.530;2024-02-21T06:59:40;15.60;;;7.57;;
10244;SDS011;5167;52.164;10.530;2024-02-21T07:02:07;15.75;;;7.75;;
10244;SDS011;5167;52.164;10.530;2024-02-21T07:04:32;20.73;;;8.20;;
10244;SDS011;5167;52.164;10.530;2024-02-21T07:06:58;15.95;;;7.28;;
10244;SDS011;5167;52.164;10.530;2024-02-21T07:09:23;14.40;;;7.30;;
10244;SDS011;5167;52.164;10.530;2024-02-21T07:11:49;14.48;;;6.75;;
10244;SDS011;5167;52.164;10.530;2024-02-21T07:14:14;17.67;;;7.93;;
10244;SDS011;5167;52.164;10.530;2024-02-21T07:16:40;15.43;;;7.78;;
10244;SDS011;5167;52.164;10.530;2024-02-21T07:19:06;16.17;;;7.35;;
10244;SDS011;5167;52.164;10.530;2024-02-21T07:21:32;13.40;;;6.82;;
10244;SDS011;5167;52.164;10.530;2024-02-21T07:23:57;15.88;;;6.88;;
10244;SDS011;5167;52.164;10.530;2024-02-21T07:26:23;15.90;;;6.95;;
10244;SDS011;5167;52.164;10.530;2024-02-21T07:28:48;16.00;;;7.97;;
10244;SDS011;5167;52.164;10.530;2024-02-21T07:31:14;17.70;;;6.60;;
10244;SDS011;5167;52.164;10.530;2024-02-21T07:33:40;13.65;;;6.07;;
10244;SDS011;5167;52.164;10.530;2024-02-21T07:36:06;16.00;;;6.60;;
10244;SDS011;5167;52.164;10.530;2024-02-21T07:38:35;16.48;;;7.03;;
10244;SDS011;5167;52.164;10.530;2024-02-21T07:41:01;18.48;;;7.18;;
10244;SDS011;5167;52.164;10.530;2024-02-21T07:43:26;17.20;;;6.20;;
10244;SDS011;5167;52.164;10.530;2024-02-21T07:45:52;13.48;;;7.15;;
10244;SDS011;5167;52.164;10.530;2024-02-21T07:48:21;17.83;;;7.30;;
10244;SDS011;5167;52.164;10.530;2024-02-21T07:50:49;14.02;;;6.65;;
10244;SDS011;5167;52.164;10.530;2024-02-21T07:53:15;13.43;;;6.55;;
10244;SDS011;5167;52.164;10.530;2024-02-21T07:55:41;14.83;;;7.37;;
10244;SDS011;5167;52.164;10.530;2024-02-21T07:58:06;15.65;;;7.47;;
10244;SDS011;5167;52.164;10.530;2024-02-21T08:00:32;20.65;;;7.40;;
10244;SDS011;5167;52.164;10.530;2024-02-21T08:02:58;11.48;;;6.38;;
10244;SDS011;5167;52.164;10.530;2024-02-21T08:05:23;31.20;;;13.50;;
10244;SDS011;5167;52.164;10.530;2024-02-21T08:07:49;17.27;;;6.75;;
10244;SDS011;5167;52.164;10.530;2024-02-21T08:10:14;11.35;;;6.20;;
10244;SDS011;5167;52.164;10.530;2024-02-21T08:12:40;11.88;;;6.20;;
10244;SDS011;5167;52.164;10.530;2024-02-21T08:15:05;12.45;;;6.18;;
10244;SDS011;5167;52.164;10.530;2024-02-21T08:17:33;16.55;;;6.47;;
10244;SDS011;5167;52.164;10.530;2024-02-21T08:19:59;14.00;;;6.13;;
10244;SDS011;5167;52.164;10.530;2024-02-21T08:22:24;12.60;;;5.80;;
10244;SDS011;5167;52.164;10.530;2024-02-21T08:24:50;13.00;;;6.40;;
10244;SDS011;5167;52.164;10.530;2024-02-21T08:27:15;13.60;;;6.47;;
10244;SDS011;5167;52.164;10.530;2024-02-21T08:29:41;16.15;;;6.40;;
10244;SDS011;5167;52.164;10.530;2024-02-21T08:32:06;21.05;;;6.78;;
10244;SDS011;5167;52.164;10.530;2024-02-21T08:34:32;13.73;;;6.38;;
10244;SDS011;5167;52.164;10.530;2024-02-21T08:36:59;14.07;;;6.38;;
10244;SDS011;5167;52.164;10.530;2024-02-21T08:39:24;13.13;;;6.13;;
10244;SDS011;5167;52.164;10.530;2024-02-21T08:41:51;14.00;;;5.93;;
10244;SDS011;5167;52.164;10.530;2024-02-21T08:44:16;10.48;;;6.15;;
10244;SDS011;5167;52.164;10.530;2024-02-21T08:46:41;15.15;;;6.85;;
10244;SDS011;5167;52.164;10.530;2024-02-21T08:49:07;10.82;;;5.75;;
10244;SDS011;5167;52.164;10.530;2024-02-21T08:51:35;13.18;;;6.28;;
10244;SDS011;5167;52.164;10.530;2024-02-21T08:54:00;10.60;;;5.60;;
10244;SDS011;5167;52.164;10.530;2024-02-21T08:56:27;12.63;;;5.78;;
10244;SDS011;5167;52.164;10.530;2024-02-21T08:58:52;11.65;;;5.78;;
10244;SDS011;5167;52.164;10.530;2024-02-21T09:01:17;11.85;;;5.65;;
10244;SDS011;5167;52.164;10.530;2024-02-21T09:03:43;10.95;;;6.28;;
10244;SDS011;5167;52.164;10.530;2024-02-21T09:06:09;19.02;;;7.93;;
10244;SDS011;5167;52.164;10.530;2024-02-21T09:08:35;16.85;;;6.70;;
10244;SDS011;5167;52.164;10.530;2024-02-21T09:11:01;12.13;;;5.97;;
10244;SDS011;5167;52.164;10.530;2024-02-21T09:13:27;11.75;;;5.32;;
10244;SDS011;5167;52.164;10.530;2024-02-21T09:15:52;16.38;;;6.15;;
10244;SDS011;5167;52.164;10.530;2024-02-21T09:18:18;9.30;;;4.38;;
10244;SDS011;5167;52.164;10.530;2024-02-21T09:20:44;11.70;;;5.00;;
10244;SDS011;5167;52.164;10.530;2024-02-21T09:23:10;10.50;;;4.72;;
10244;SDS011;5167;52.164;10.530;2024-02-21T09:25:37;8.68;;;4.50;;
10244;SDS011;5167;52.164;10.530;2024-02-21T09:28:02;9.20;;;4.60;;
10244;SDS011;5167;52.164;10.530;2024-02-21T09:30:28;23.27;;;5.18;;
10244;SDS011;5167;52.164;10.530;2024-02-21T09:32:55;9.90;;;5.15;;
10244;SDS011;5167;52.164;10.530;2024-02-21T09:35:23;11.73;;;4.65;;
10244;SDS011;5167;52.164;10.530;2024-02-21T09:37:50;7.20;;;4.28;;
10244;SDS011;5167;52.164;10.530;2024-02-21T09:40:16;13.23;;;4.85;;
10244;SDS011;5167;52.164;10.530;2024-02-21T09:42:42;13.02;;;4.68;;
10244;SDS011;5167;52.164;10.530;2024-02-21T09:45:12;8.85;;;4.32;;
10244;SDS011;5167;52.164;10.530;2024-02-21T09:47:58;7.60;;;4.22;;
10244;SDS011;5167;52.164;10.530;2024-02-21T09:50:45;14.07;;;6.10;;
10244;SDS011;5167;52.164;10.530;2024-02-21T09:53:14;8.23;;;4.53;;
10244;SDS011;5167;52.164;10.530;2024-02-21T09:55:40;10.60;;;4.70;;
10244;SDS011;5167;52.164;10.530;2024-02-21T09:58:07;10.30;;;4.13;;
10244;SDS011;5167;52.164;10.530;2024-02-21T10:00:34;7.78;;;3.63;;
10244;SDS011;5167;52.164;10.530;2024-02-21T10:03:01;7.30;;;4.05;;
10244;SDS011;5167;52.164;10.530;2024-02-21T10:05:27;16.20;;;4.93;;
10244;SDS011;5167;52.164;10.530;2024-02-21T10:07:53;7.15;;;4.20;;
10244;SDS011;5167;52.164;10.530;2024-02-21T10:10:20;8.98;;;4.05;;
10244;SDS011;5167;52.164;10.530;2024-02-21T10:12:49;46.78;;;8.02;;
10244;SDS011;5167;52.164;10.530;2024-02-21T10:15:19;14.10;;;3.97;;
10244;SDS011;5167;52.164;10.530;2024-02-21T10:18:01;8.68;;;4.13;;
10244;SDS011;5167;52.164;10.530;2024-02-21T10:20:31;9.85;;;4.13;;
10244;SDS011;5167;52.164;10.530;2024-02-21T10:23:01;13.45;;;5.10;;
10244;SDS011;5167;52.164;10.530;2024-02-21T10:25:36;9.65;;;4.07;;
10244;SDS011;5167;52.164;10.530;2024-02-21T10:28:13;5.70;;;3.55;;
10244;SDS011;5167;52.164;10.530;2024-02-21T10:30:49;7.88;;;3.90;;
10244;SDS011;5167;52.164;10.530;2024-02-21T10:33:16;16.70;;;4.35;;
10244;SDS011;5167;52.164;10.530;2024-02-21T10:35:41;9.02;;;3.35;;
10244;SDS011;5167;52.164;10.530;2024-02-21T10:38:07;20.60;;;9.73;;
10244;SDS011;5167;52.164;10.530;2024-02-21T10:40:33;7.50;;;4.22;;
10244;SDS011;5167;52.164;10.530;2024-02-21T10:42:59;5.57;;;3.42;;
10244;SDS011;5167;52.164;10.530;2024-02-21T10:45:30;6.95;;;3.10;;
10244;SDS011;5167;52.164;10.530;2024-02-21T10:48:03;7.47;;;3.40;;
10244;SDS011;5167;52.164;10.530;2024-02-21T10:50:53;11.48;;;3.58;;
10244;SDS011;5167;52.164;10.530;2024-02-21T10:56:16;8.85;;;3.00;;
10244;SDS011;5167;52.164;10.530;2024-02-21T10:58:50;12.38;;;3.92;;
10244;SDS011;5167;52.164;10.530;2024-02-21T11:01:16;7.78;;;3.55;;
10244;SDS011;5167;52.164;10.530;2024-02-21T11:03:43;6.05;;;3.95;;
10244;SDS011;5167;52.164;10.530;2024-02-21T11:06:11;7.32;;;3.28;;
10244;SDS011;5167;52.164;10.530;2024-02-21T11:08:38;9.77;;;3.75;;
10244;SDS011;5167;52.164;10.530;2024-02-21T11:11:04;6.97;;;4.00;;
10244;SDS011;5167;52.164;10.530;2024-02-21T11:13:31;9.65;;;3.80;;
10244;SDS011;5167;52.164;10.530;2024-02-21T11:16:06;8.50;;;3.50;;
10244;SDS011;5167;52.164;10.530;2024-02-21T11:18:34;15.85;;;7.68;;
10244;SDS011;5167;52.164;10.530;2024-02-21T11:20:59;8.45;;;4.18;;
10244;SDS011;5167;52.164;10.530;2024-02-21T11:23:25;8.73;;;3.80;;
10244;SDS011;5167;52.164;10.530;2024-02-21T11:25:51;12.82;;;5.65;;
10244;SDS011;5167;52.164;10.530;2024-02-21T11:28:17;6.40;;;3.25;;
10244;SDS011;5167;52.164;10.530;2024-02-21T11:30:50;6.40;;;3.60;;
10244;SDS011;5167;52.164;10.530;2024-02-21T11:33:16;9.75;;;3.63;;
10244;SDS011;5167;52.164;10.530;2024-02-21T11:35:42;8.52;;;4.28;;
10244;SDS011;5167;52.164;10.530;2024-02-21T11:38:08;15.18;;;3.65;;
10244;SDS011;5167;52.164;10.530;2024-02-21T11:40:43;6.57;;;3.65;;
10244;SDS011;5167;52.164;10.530;2024-02-21T11:43:10;5.68;;;3.30;;
10244;SDS011;5167;52.164;10.530;2024-02-21T11:45:35;5.45;;;3.53;;
10244;SDS011;5167;52.164;10.530;2024-02-21T11:48:01;6.30;;;3.40;;
10244;SDS011;5167;52.164;10.530;2024-02-21T11:50:29;5.32;;;3.20;;
10244;SDS011;5167;52.164;10.530;2024-02-21T11:52:55;9.73;;;3.70;;
10244;SDS011;5167;52.164;10.530;2024-02-21T11:55:21;7.97;;;3.53;;
10244;SDS011;5167;52.164;10.530;2024-02-21T11:57:47;8.60;;;3.38;;
10244;SDS011;5167;52.164;10.530;2024-02-21T12:00:16;8.05;;;3.65;;
10244;SDS011;5167;52.164;10.530;2024-02-21T12:02:45;6.40;;;3.05;;
10244;SDS011;5167;52.164;10.530;2024-02-21T12:05:10;7.90;;;3.30;;
10244;SDS011;5167;52.164;10.530;2024-02-21T12:07:36;10.05;;;3.22;;
10244;SDS011;5167;52.164;10.530;2024-02-21T12:10:06;5.75;;;3.05;;
10244;SDS011;5167;52.164;10.530;2024-02-21T12:12:36;5.78;;;2.92;;
10244;SDS011;5167;52.164;10.530;2024-02-21T12:15:03;13.93;;;3.92;;
10244;SDS011;5167;52.164;10.530;2024-02-21T12:17:30;4.60;;;3.17;;
10244;SDS011;5167;52.164;10.530;2024-02-21T12:19:57;13.52;;;3.80;;
10244;SDS011;5167;52.164;10.530;2024-02-21T12:22:24;4.78;;;3.25;;
10244;SDS011;5167;52.164;10.530;2024-02-21T12:24:50;9.20;;;4.05;;
10244;SDS011;5167;52.164;10.530;2024-02-21T12:27:15;7.63;;;3.00;;
10244;SDS011;5167;52.164;10.530;2024-02-21T12:29:41;10.85;;;3.58;;
10244;SDS011;5167;52.164;10.530;2024-02-21T12:32:06;30.23;;;5.22;;
10244;SDS011;5167;52.164;10.530;2024-02-21T12:34:32;5.70;;;3.20;;
10244;SDS011;5167;52.164;10.530;2024-02-21T12:36:58;10.20;;;3.85;;
10244;SDS011;5167;52.164;10.530;2024-02-21T12:39:24;6.85;;;3.10;;
10244;SDS011;5167;52.164;10.530;2024-02-21T12:41:52;5.05;;;2.63;;
10244;SDS011;5167;52.164;10.530;2024-02-21T12:44:18;13.98;;;3.47;;
10244;SDS011;5167;52.164;10.530;2024-02-21T12:46:43;10.57;;;3.65;;
10244;SDS011;5167;52.164;10.530;2024-02-21T12:49:09;10.80;;;2.47;;
10244;SDS011;5167;52.164;10.530;2024-02-21T12:51:35;5.97;;;3.28;;
10244;SDS011;5167;52.164;10.530;2024-02-21T12:54:02;9.25;;;3.58;;
10244;SDS011;5167;52.164;10.530;2024-02-21T12:56:28;8.60;;;2.85;;
10244;SDS011;5167;52.164;10.530;2024-02-21T12:58:55;4.85;;;2.83;;
10244;SDS011;5167;52.164;10.530;2024-02-21T13:01:21;7.35;;;3.10;;
10244;SDS011;5167;52.164;10.530;2024-02-21T13:03:47;6.60;;;2.95;;
10244;SDS011;5167;52.164;10.530;2024-02-21T13:06:12;13.02;;;2.97;;
10244;SDS011;5167;52.164;10.530;2024-02-21T13:08:38;5.80;;;2.95;;
10244;SDS011;5167;52.164;10.530;2024-02-21T13:11:04;7.90;;;2.88;;
10244;SDS011;5167;52.164;10.530;2024-02-21T13:13:30;7.45;;;2.80;;
10244;SDS011;5167;52.164;10.530;2024-02-21T13:15:56;8.68;;;2.70;;
10244;SDS011;5167;52.164;10.530;2024-02-21T13:18:22;10.02;;;3.03;;
10244;SDS011;5167;52.164;10.530;2024-02-21T13:20:48;5.95;;;3.08;;
10244;SDS011;5167;52.164;10.530;2024-02-21T13:23:13;5.57;;;3.05;;
10244;SDS011;5167;52.164;10.530;2024-02-21T13:25:39;4.90;;;2.90;;
10244;SDS011;5167;52.164;10.530;2024-02-21T13:28:04;5.95;;;2.90;;
10244;SDS011;5167;52.164;10.530;2024-02-21T13:30:30;5.68;;;2.50;;
10244;SDS011;5167;52.164;10.530;2024-02-21T13:32:56;5.03;;;2.70;;
10244;SDS011;5167;52.164;10.530;2024-02-21T13:35:21;6.22;;;2.58;;
10244;SDS011;5167;52.164;10.530;2024-02-21T13:37:47;6.25;;;2.45;;
10244;SDS011;5167;52.164;10.530;2024-02-21T13:40:12;5.72;;;2.55;;
10244;SDS011;5167;52.164;10.530;2024-02-21T13:42:38;5.82;;;2.65;;
10244;SDS011;5167;52.164;10.530;2024-02-21T13:45:04;3.92;;;2.35;;
10244;SDS011;5167;52.164;10.530;2024-02-21T13:47:31;9.90;;;3.83;;
10244;SDS011;5167;52.164;10.530;2024-02-21T13:50:01;4.95;;;2.50;;
10244;SDS011;5167;52.164;10.530;2024-02-21T13:52:29;6.95;;;3.20;;
10244;SDS011;5167;52.164;10.530;2024-02-21T13:54:55;7.15;;;2.65;;
10244;SDS011;5167;52.164;10.530;2024-02-21T13:57:21;8.85;;;2.60;;
10244;SDS011;5167;52.164;10.530;2024-02-21T13:59:46;10.82;;;3.10;;
10244;SDS011;5167;52.164;10.530;2024-02-21T14:02:12;5.65;;;2.42;;
10244;SDS011;5167;52.164;10.530;2024-02-21T14:04:38;5.65;;;3.03;;
10244;SDS011;5167;52.164;10.530;2024-02-21T14:07:03;4.97;;;2.35;;
10244;SDS011;5167;52.164;10.530;2024-02-21T14:09:29;4.13;;;2.25;;
10244;SDS011;5167;52.164;10.530;2024-02-21T14:11:54;9.50;;;2.85;;
10244;SDS011;5167;52.164;10.530;2024-02-21T14:14:20;6.32;;;2.42;;
10244;SDS011;5167;52.164;10.530;2024-02-21T14:16:46;5.53;;;2.55;;
10244;SDS011;5167;52.164;10.530;2024-02-21T14:19:13;4.57;;;2.58;;
10244;SDS011;5167;52.164;10.530;2024-02-21T14:21:38;4.43;;;2.33;;
10244;SDS011;5167;52.164;10.530;2024-02-21T14:24:05;4.75;;;2.15;;
10244;SDS011;5167;52.164;10.530;2024-02-21T14:26:31;4.93;;;2.10;;
10244;SDS011;5167;52.164;10.530;2024-02-21T14:28:57;7.78;;;2.03;;
10244;SDS011;5167;52.164;10.530;2024-02-21T14:31:22;5.90;;;2.40;;
10244;SDS011;5167;52.164;10.530;2024-02-21T14:33:48;8.45;;;3.17;;
10244;SDS011;5167;52.164;10.530;2024-02-21T14:36:14;5.13;;;2.50;;